createdAt,value
2022-08-15T00:00:44.173Z,68.65
2022-08-15T00:05:49.207Z,68.76
2022-08-15T00:10:59.777Z,68.77
2022-08-15T00:16:07.465Z,68.72
2022-08-15T00:21:13.628Z,68.86
2022-08-15T00:26:29.141Z,68.65
2022-08-15T00:31:42.900Z,68.94
2022-08-15T00:36:52.332Z,68.54
2022-08-15T00:42:01.918Z,68.52
2022-08-15T00:47:11.990Z,68.57
2022-08-15T00:52:30.242Z,69.06
2022-08-15T00:58:00.899Z,68.97
2022-08-15T01:03:16.625Z,68.66
2022-08-15T01:08:30.903Z,68.93
2022-08-15T01:14:02.352Z,69.32
2022-08-15T01:19:17.057Z,69.16
2022-08-15T01:25:26.557Z,69.22
2022-08-15T01:30:39.536Z,69.40
2022-08-15T01:35:41.748Z,69.65
2022-08-15T01:41:11.454Z,69.55
2022-08-15T01:46:22.661Z,69.73
2022-08-15T01:51:29.722Z,69.77
2022-08-15T01:56:46.203Z,69.91
2022-08-15T02:01:55.782Z,69.44
2022-08-15T02:07:09.109Z,69.76
2022-08-15T02:13:02.981Z,69.45
2022-08-15T02:17:54.532Z,69.45
2022-08-15T02:22:59.077Z,69.38
2022-08-15T02:28:35.107Z,69.70
2022-08-15T02:33:29.892Z,69.56
2022-08-15T02:38:48.290Z,69.64
2022-08-15T02:43:53.289Z,69.27
2022-08-15T02:48:59.349Z,69.27
2022-08-15T02:54:38.011Z,69.68
2022-08-15T02:59:38.185Z,69.20
2022-08-15T03:04:49.275Z,69.18
2022-08-15T03:09:56.703Z,69.41
2022-08-15T03:15:06.653Z,69.65
2022-08-15T03:20:13.475Z,69.74
2022-08-15T03:25:19.417Z,69.67
2022-08-15T03:30:39.449Z,69.29
2022-08-15T03:35:56.120Z,69.63
2022-08-15T03:41:06.116Z,69.42
2022-08-15T03:46:19.096Z,69.73
2022-08-15T03:51:33.423Z,69.60
2022-08-15T03:56:43.391Z,69.55
2022-08-15T04:01:49.588Z,69.22
2022-08-15T04:07:00.630Z,69.32
2022-08-15T04:12:08.139Z,69.39
2022-08-15T04:17:57.890Z,69.44
2022-08-15T04:22:54.566Z,69.31
2022-08-15T04:28:06.465Z,68.93
2022-08-15T04:34:22.386Z,68.72
2022-08-15T04:38:58.579Z,68.71
2022-08-15T04:44:06.094Z,68.56
2022-08-15T04:49:11.368Z,68.16
2022-08-15T04:54:15.657Z,67.70
2022-08-15T04:59:36.016Z,67.20
2022-08-15T05:05:01.338Z,67.42
2022-08-15T05:10:11.578Z,67.13
2022-08-15T05:15:22.057Z,66.86
2022-08-15T05:20:27.036Z,66.70
2022-08-15T05:25:35.233Z,66.06
2022-08-15T05:30:57.230Z,66.11
2022-08-15T05:36:08.468Z,65.05
2022-08-15T05:41:53.522Z,64.27
2022-08-15T05:47:04.258Z,63.80
2022-08-15T05:52:49.232Z,63.36
2022-08-15T05:58:42.591Z,56.38
2022-08-15T06:03:59.547Z,50.72
2022-08-15T06:09:25.480Z,48.74
2022-08-15T06:14:46.524Z,49.49
2022-08-15T06:19:52.918Z,48.98
2022-08-15T06:25:20.536Z,48.93
2022-08-15T06:30:47.252Z,48.32
2022-08-15T06:36:21.313Z,48.53
2022-08-15T06:41:50.031Z,45.85
2022-08-15T06:47:07.300Z,43.55
2022-08-15T06:52:17.146Z,45.39
2022-08-15T06:57:28.724Z,47.97
2022-08-15T07:02:50.286Z,49.74
2022-08-15T07:08:20.609Z,51.52
2022-08-15T07:13:29.981Z,52.44
2022-08-15T07:18:41.740Z,52.92
2022-08-15T07:24:34.006Z,53.29
2022-08-15T07:29:55.666Z,53.51
2022-08-15T07:35:25.973Z,53.38
2022-08-15T07:40:39.583Z,53.06
2022-08-15T07:45:48.324Z,52.48
2022-08-15T07:51:16.555Z,51.96
2022-08-15T07:56:38.425Z,51.50
2022-08-15T08:01:47.953Z,51.06
2022-08-15T08:07:04.596Z,50.61
2022-08-15T08:12:10.248Z,50.15
2022-08-15T08:17:42.728Z,49.39
2022-08-15T08:23:00.320Z,48.62
2022-08-15T08:28:23.249Z,48.28
2022-08-15T08:33:35.044Z,48.64
2022-08-15T08:39:39.516Z,48.57
2022-08-15T08:44:59.494Z,48.84
2022-08-15T08:50:37.575Z,48.73
2022-08-15T08:55:53.703Z,48.05
2022-08-15T09:00:58.028Z,48.14
2022-08-15T09:06:05.860Z,47.89
2022-08-15T09:11:18.410Z,47.87
2022-08-15T09:16:30.226Z,47.67
2022-08-15T09:21:38.177Z,47.92
2022-08-15T09:26:41.861Z,47.96
2022-08-15T09:32:32.260Z,48.07
2022-08-15T09:38:26.218Z,48.32
2022-08-15T09:43:44.230Z,48.56
2022-08-15T09:49:34.261Z,49.05
2022-08-15T09:55:32.766Z,49.02
2022-08-15T10:00:53.026Z,49.30
2022-08-15T10:06:33.891Z,49.11
2022-08-15T10:12:01.672Z,49.46
2022-08-15T10:17:33.974Z,49.59
2022-08-15T10:22:48.914Z,49.87
2022-08-15T10:28:36.661Z,49.94
2022-08-15T10:33:58.573Z,50.47
2022-08-15T10:39:45.911Z,49.86
2022-08-15T10:45:02.905Z,50.15
2022-08-15T10:50:56.175Z,50.89
2022-08-15T10:57:05.054Z,51.25
2022-08-15T11:01:48.857Z,50.33
2022-08-15T11:06:56.124Z,50.39
2022-08-15T11:12:13.215Z,50.69
2022-08-15T11:17:25.828Z,50.49
2022-08-15T11:23:01.482Z,51.16
2022-08-15T11:28:36.825Z,51.09
2022-08-15T11:33:47.572Z,51.29
2022-08-15T11:39:15.809Z,51.41
2022-08-15T11:44:25.878Z,51.52
2022-08-15T11:49:35.340Z,51.46
2022-08-15T11:54:41.139Z,51.57
2022-08-15T12:00:03.149Z,51.64
2022-08-15T12:05:42.730Z,51.77
2022-08-15T12:10:55.223Z,51.97
2022-08-15T12:16:00.100Z,52.27
2022-08-15T12:21:08.220Z,52.46
2022-08-15T12:26:40.236Z,52.47
2022-08-15T12:31:42.990Z,52.31
2022-08-15T12:37:05.511Z,52.59
2022-08-15T12:42:47.934Z,53.08
2022-08-15T12:48:06.298Z,53.23
2022-08-15T12:53:11.742Z,53.26
2022-08-15T12:58:23.687Z,53.91
2022-08-15T13:03:39.459Z,53.59
2022-08-15T13:08:54.033Z,53.74
2022-08-15T13:14:00.219Z,53.88
2022-08-15T13:19:16.683Z,53.71
2022-08-15T13:24:27.671Z,53.06
2022-08-15T13:29:33.602Z,53.55
2022-08-15T13:34:57.820Z,53.83
2022-08-15T13:40:02.545Z,53.70
2022-08-15T13:45:10.002Z,53.63
2022-08-15T13:50:18.545Z,53.61
2022-08-15T13:55:29.684Z,54.30
2022-08-15T14:00:55.154Z,54.88
2022-08-15T14:06:00.863Z,54.61
2022-08-15T14:11:12.279Z,54.62
2022-08-15T14:16:57.295Z,54.83
2022-08-15T14:21:49.242Z,54.60
2022-08-15T14:27:11.018Z,54.88
2022-08-15T14:37:48.671Z,55.47
2022-08-15T14:42:58.700Z,55.75
2022-08-15T14:48:03.840Z,56.22
2022-08-15T14:53:31.151Z,55.94
2022-08-15T14:58:44.853Z,56.29
2022-08-15T15:03:51.616Z,56.48
2022-08-15T15:09:02.208Z,56.39
2022-08-15T15:14:06.873Z,56.58
2022-08-15T15:19:21.060Z,56.62
2022-08-15T15:24:42.589Z,56.83
2022-08-15T15:29:50.682Z,57.03
2022-08-15T15:34:54.925Z,56.63
2022-08-15T15:39:58.902Z,57.25
2022-08-15T15:45:06.776Z,57.36
2022-08-15T15:50:26.625Z,57.02
2022-08-15T15:55:34.105Z,57.60
2022-08-15T16:00:51.316Z,57.64
2022-08-15T16:06:03.400Z,58.10
2022-08-15T16:11:42.297Z,58.60
2022-08-15T16:17:07.025Z,58.88
2022-08-15T16:22:20.084Z,59.25
2022-08-15T16:27:30.011Z,59.76
2022-08-15T16:32:40.678Z,59.75
2022-08-15T16:37:54.021Z,59.69
2022-08-15T16:43:04.284Z,60.09
2022-08-15T16:48:31.326Z,59.91
2022-08-15T16:53:56.519Z,60.35
2022-08-15T16:59:31.158Z,60.16
2022-08-15T17:05:01.148Z,60.62
2022-08-15T17:10:39.879Z,60.94
2022-08-15T17:16:17.519Z,60.68
2022-08-15T17:21:54.948Z,61.21
2022-08-15T17:27:26.989Z,61.63
2022-08-15T17:32:30.683Z,61.40
2022-08-15T17:37:44.224Z,61.58
2022-08-15T17:42:49.801Z,62.20
2022-08-15T17:48:29.584Z,61.96
2022-08-15T17:53:55.881Z,62.22
2022-08-15T17:59:10.585Z,62.43
2022-08-15T18:04:19.822Z,62.73
2022-08-15T18:10:44.488Z,63.13
2022-08-15T18:14:54.474Z,63.23
2022-08-15T18:20:28.549Z,62.95
2022-08-15T18:25:47.063Z,63.30
2022-08-15T18:30:51.477Z,63.47
2022-08-15T18:36:10.016Z,63.01
2022-08-15T18:41:30.423Z,63.36
2022-08-15T18:46:36.800Z,63.54
2022-08-15T18:51:54.905Z,63.24
2022-08-15T18:57:10.897Z,63.26
2022-08-15T19:02:24.115Z,63.72
2022-08-15T19:07:31.443Z,63.45
2022-08-15T19:12:51.413Z,64.05
2022-08-15T19:18:38.300Z,64.00
2022-08-15T19:23:47.925Z,64.18
2022-08-15T19:29:33.730Z,64.20
2022-08-15T19:34:56.548Z,64.19
2022-08-15T19:40:45.664Z,64.08
2022-08-15T19:46:04.422Z,64.30
2022-08-15T19:51:39.014Z,64.45
2022-08-15T19:56:57.078Z,64.38
2022-08-15T20:02:51.533Z,64.56
2022-08-15T20:08:36.028Z,64.54
2022-08-15T20:13:40.899Z,64.34
2022-08-15T20:19:12.754Z,64.77
2022-08-15T20:24:35.246Z,64.61
2022-08-15T20:30:05.254Z,64.68
2022-08-15T20:35:29.505Z,64.41
2022-08-15T20:40:47.941Z,64.66
2022-08-15T20:46:07.023Z,64.57
2022-08-15T20:52:01.028Z,64.69
2022-08-15T20:57:02.267Z,64.70
2022-08-15T21:02:45.624Z,65.25
2022-08-15T21:07:57.274Z,65.19
2022-08-15T21:13:26.862Z,65.04
2022-08-15T21:18:44.106Z,65.37
2022-08-15T21:23:58.383Z,65.33
2022-08-15T21:29:27.887Z,65.19
2022-08-15T21:34:40.557Z,65.70
2022-08-15T21:39:54.885Z,65.50
2022-08-15T21:45:10.862Z,65.38
2022-08-15T21:50:48.615Z,65.68
2022-08-15T21:55:55.396Z,66.08
2022-08-15T22:01:33.965Z,66.11
2022-08-15T22:06:38.657Z,65.98
2022-08-15T22:11:47.149Z,66.38
2022-08-15T22:16:50.927Z,66.32
2022-08-15T22:21:55.243Z,66.58
2022-08-15T22:27:11.689Z,66.50
2022-08-15T22:32:31.029Z,66.71
2022-08-15T22:37:44.162Z,66.59
2022-08-15T22:42:53.570Z,66.50
2022-08-15T22:47:57.887Z,66.46
2022-08-15T22:53:03.537Z,66.78
2022-08-15T22:58:13.489Z,66.92
2022-08-15T23:03:24.949Z,66.90
2022-08-15T23:08:50.190Z,66.92
2022-08-15T23:14:00.952Z,67.08
2022-08-15T23:19:29.916Z,67.17
2022-08-15T23:24:37.678Z,66.98
2022-08-15T23:29:50.554Z,67.25
2022-08-15T23:34:55.784Z,67.20
2022-08-15T23:40:27.249Z,66.79
2022-08-15T23:45:43.331Z,66.92
2022-08-15T23:50:48.480Z,67.36
2022-08-15T23:55:58.888Z,66.99
